Flight Track Log - Related Links

Times and Time Zones

All times are in EDT time to prevent confusion due to time zone crossing. See the SLI2074 flight status page for this flight to view local times or setup timezone preferences in your user account.

Time Position Orientation Groundspeed Altitude Reporting Facility
EDT Latitude Longitude Course Direction KTS MPH feet Rate Location/Type
Sat 11:28:00 PM 19.9594 -100.2273 296° West  Level Estimated
Sat 11:29:00 PM 20.0026 -100.3239 295° West  Level Estimated
Sat 11:30:00 PM 20.0458 -100.4206 295° West  Level Estimated
Sat 11:31:00 PM 20.0889 -100.5173 295° West  Level Estimated
Sat 11:32:00 PM 20.1320 -100.6141 295° West  Level Estimated
Sat 11:33:00 PM 20.1751 -100.7109 295° West  Level Estimated
Sat 11:34:00 PM 20.2181 -100.8078 295° West  Level Estimated
Sat 11:35:00 PM 20.2610 -100.9047 295° West  Level Estimated
Sat 11:36:00 PM 20.3039 -101.0017 295° West  Level Estimated
Sat 11:37:00 PM 20.3467 -101.0987 295° West  Level Estimated
Sat 11:38:00 PM 20.3895 -101.1958 295° West  Level Estimated
Sat 11:39:00 PM 20.4322 -101.2929 295° West  Level Estimated
Sat 11:40:00 PM 20.4749 -101.3901 295° West  Level Estimated
Sat 11:41:00 PM 20.5175 -101.4874 295° West  Level Estimated
Sat 11:42:00 PM 20.5600 -101.5847 295° West  Level Estimated
Sat 11:43:00 PM 20.6025 -101.6821 295° West  Level Estimated
Sat 11:44:00 PM 20.6450 -101.7795 295° West  Level Estimated
Sat 11:45:00 PM 20.6874 -101.8769 295° West  Level Estimated
Sat 11:46:00 PM 20.7297 -101.9745 295° West  Level Estimated
Sat 11:47:00 PM 20.7720 -102.0720 295° West  Level Estimated
Sat 11:48:00 PM 20.8142 -102.1697 295° West  Level Estimated
Sat 11:49:00 PM 20.8564 -102.2674 295° West  Level Estimated
Sat 11:50:00 PM 20.8985 -102.3651 295° West  Level Estimated
Sat 11:51:00 PM 20.9406 -102.4629 295° West  Level Estimated
Sat 11:52:00 PM 20.9826 -102.5608 295° West  Level Estimated
Sat 11:53:00 PM 21.0245 -102.6587 295° West  Level Estimated
Sat 11:54:00 PM 21.0665 -102.7566 295° West  Level Estimated
Sat 11:55:00 PM 21.1083 -102.8546 295° West  Level Estimated
Sat 11:56:00 PM 21.1501 -102.9527 295° West  Level Estimated
Sat 11:57:00 PM 21.1918 -103.0508 295° West  Level Estimated
Sat 11:58:00 PM 21.2335 -103.1490 294° West  Level Estimated
Sat 11:59:00 PM 21.2751 -103.2473 294° West  Level Estimated
Sun 12:00:00 AM 21.3166 -103.3456 294° West  Level Estimated
Sun 12:01:00 AM 21.3581 -103.4439 294° West  Level Estimated
Sun 12:02:00 AM 21.3996 -103.5423 294° West  Level Estimated
Sun 12:03:00 AM 21.4410 -103.6408 294° West  Level Estimated
Sun 12:04:00 AM 21.4823 -103.7393 294° West  Level Estimated
Sun 12:05:00 AM 21.5236 -103.8379 294° West  Level Estimated
Sun 12:06:00 AM 21.5648 -103.9365 294° West  Level Estimated
Sun 12:07:00 AM 21.6059 -104.0352 294° West  Level Estimated
Sun 12:08:00 AM 21.6470 -104.1339 294° West  Level Estimated
Sun 12:09:00 AM 21.6881 -104.2327 294° West  Level Estimated
Sun 12:10:00 AM 21.7290 -104.3316 294° West  Level Estimated
Sun 12:11:00 AM 21.7700 -104.4305 294° West  Level Estimated
Sun 12:12:00 AM 21.8108 -104.5294 294° West  Level Estimated
Sun 12:13:00 AM 21.8516 -104.6285 294° West  Level Estimated
Sun 12:14:00 AM 21.8924 -104.7275 294° West  Level Estimated
Sun 12:15:00 AM 21.9330 -104.8267 294° West  Level Estimated
Sun 12:16:00 AM 21.9737 -104.9259 294° West  Level Estimated
Sun 12:17:00 AM 22.0142 -105.0251 294° West  Level Estimated
Sun 12:18:00 AM 22.0547 -105.1244 294° West  Level Estimated
Sun 12:19:00 AM 22.0952 -105.2238 294° West  Level Estimated
Sun 12:20:00 AM 22.1355 -105.3232 294° West  Level Estimated
Sun 12:21:00 AM 22.1759 -105.4227 294° West  Level Estimated
Sun 12:22:00 AM 22.2161 -105.5222 294° West  Level Estimated
Sun 12:23:00 AM 22.2563 -105.6218 294° West  Level Estimated
Sun 12:24:00 AM 22.2965 -105.7215 294° West  Level Estimated
Sun 12:25:00 AM 22.3365 -105.8212 294° West  Level Estimated
Sun 12:26:00 AM 22.3766 -105.9209 293° West  Level Estimated
Sun 12:27:00 AM 22.4165 -106.0207 293° West  Level Estimated
Sun 12:28:00 AM 22.4564 -106.1206 293° West  Level Estimated
Sun 12:29:00 AM 22.4963 -106.2206 293° West  Level Estimated
Sun 12:30:00 AM 22.5360 -106.3205 293° West  Level Estimated
Sun 12:31:00 AM 22.5758 -106.4206 293° West  Level Estimated
Sun 12:32:00 AM 22.6154 -106.5207 293° West  Level Estimated
Sun 12:33:00 AM 22.6550 -106.6209 293° West  Level Estimated
Sun 12:34:00 AM 22.6945 -106.7211 293° West  Level Estimated
Sun 12:35:00 AM 22.7340 -106.8214 293° West  Level Estimated
Sun 12:36:00 AM 22.7734 -106.9217 293° West  Level Estimated
Sun 12:37:00 AM 22.8127 -107.0221 293° West  Level Estimated
Sun 12:38:00 AM 22.8520 -107.1226 293° West  Level Estimated
Sun 12:39:00 AM 22.8912 -107.2231 293° West  Level Estimated
Sun 12:40:00 AM 22.9304 -107.3236 293° West  Level Estimated
Sun 12:41:00 AM 22.9694 -107.4243 293° West  Level Estimated
Sun 12:42:00 AM 23.0085 -107.5249 293° West  Level Estimated
Sun 12:43:00 AM 23.0474 -107.6257 293° West  Level Estimated
Sun 12:44:00 AM 23.0863 -107.7265 293° West  Level Estimated
Sun 12:45:00 AM 23.1252 -107.8273 293° West  Level Estimated
Sun 12:46:00 AM 23.1639 -107.9283 293° West  Level Estimated
Sun 12:47:00 AM 23.2026 -108.0293 293° West  Level Estimated
Sun 12:48:00 AM 23.2413 -108.1303 293° West  Level Estimated
Sun 12:49:00 AM 23.2798 -108.2314 293° West  Level Estimated
Sun 12:50:00 AM 23.3183 -108.3325 293° West  Level Estimated
Sun 12:51:00 AM 23.3568 -108.4337 292° West  Level Estimated
Sun 12:52:00 AM 23.3952 -108.5350 292° West  Level Estimated
Sun 12:53:00 AM 23.4335 -108.6364 292° West  Level Estimated
Sun 12:54:00 AM 23.4717 -108.7377 292° West  Level Estimated
Sun 12:55:00 AM 23.5099 -108.8392 292° West  Level Estimated
Sun 12:56:00 AM 23.5480 -108.9407 292° West  Level Estimated
Sun 12:57:00 AM 23.5861 -109.0423 292° West  Level Estimated
Sun 12:58:00 AM 23.6241 -109.1439 292° West  Level Estimated
Sun 12:59:00 AM 23.6620 -109.2456 292° West  Level Estimated
Sun 01:00:00 AM 23.6998 -109.3473 292° West  Level Estimated
Sun 01:01:00 AM 23.7376 -109.4491 292° West  Level Estimated
Sun 01:02:00 AM 23.7754 -109.5510 292° West  Level Estimated
Sun 01:03:00 AM 23.8130 -109.6529 292° West  Level Estimated
Sun 01:04:00 AM 23.8506 -109.7549 292° West  Level Estimated
Sun 01:05:00 AM 23.8881 -109.8569 292° West  Level Estimated
Sun 01:06:00 AM 23.9256 -109.9590 292° West  Level Estimated
Sun 01:07:00 AM 23.9629 -110.0611 292° West  Level Estimated
Sun 01:08:00 AM 24.0003 -110.1634 292° West  Level Estimated
Sun 01:09:00 AM 24.0375 -110.2656 292° West  Level Estimated
Sun 01:10:00 AM 24.0727 -110.3625 292° West  Level Estimated
Sun 01:11:00 AM 24.0727 -110.3625 49° Northeast  Level Estimated
Sun 01:12:00 AM 24.0727 -110.3625 49° Northeast  Level Estimated
Sun 01:13:00 AM 24.0727 -110.3625 49° Northeast  Level Estimated
Sun 01:14:00 AM 24.0727 -110.3625 49° Northeast  Level Estimated
Sun 01:15:00 AM 24.0727 -110.3625 49° Northeast  Level Estimated
Sun 01:16:00 AM 24.0727 -110.3625 49° Northeast  Level Estimated
Sun 01:17:00 AM 24.0727 -110.3625 49° Northeast  Level Estimated
Sun 01:18:00 AM 24.0727 -110.3625 49° Northeast  Level Estimated
Sun 01:19:00 AM 24.0727 -110.3625 49° Northeast  Level Estimated
Sun 01:20:00 AM 24.0727 -110.3625 49° Northeast  Level Estimated
Sun 01:21:00 AM 24.0727 -110.3625 49° Northeast  Level Estimated
Sun 01:22:00 AM 24.0727 -110.3625 49° Northeast  Level Estimated
Sun 01:23:00 AM 24.0727 -110.3625 49° Northeast  Level Estimated
Sun 01:24:00 AM 24.0727 -110.3625 49° Northeast  Level Estimated
Sun 01:25:00 AM 24.0727 -110.3625 49° Northeast  Level Estimated
Sun 01:26:00 AM 24.0727 -110.3625 49° Northeast  Level Estimated

Login

Don't have an account? Register now (free) for customized features, flight alerts, and more!